Meridian Spirit — OWHC2 — position and weather

sailwx.info

Track history (hours):
 
Tides and Currents Weather Stations Pressure Air Temp Water Temp Dewpoint Dewpoint Depression Visibility Wind Speed Wind Dir Waves Ship Positions

Meridian Spirit

Last reported at 2018-Apr-12 13:58 UTC. Time now 2018-Apr-19 19:00 UTC.
Position N 35°58' W 005°37'.

Length 285 m; draft 9.5 m.

Type: Tanker. MMSI: 219061000.

Date/timePositionNaut miles runAvg speedWind from/ knotsBaromVisibWave heightAir tempDewpointWater temp
2018-Apr-12 13:58N 35°58' W 005°37'613.9
2018-Apr-12 13:30N 35°60' W 005°29'714.0
2018-Apr-12 13:00N 36°02' W 005°21'612.9
2018-Apr-12 12:30N 36°04' W 005°14'5 4.3
2018-Apr-12 11:24N 36°09' W 005°14'1 1.9
2018-Apr-12 11:00N 36°09' W 005°15'1 1.5
2018-Apr-12 10:30N 36°08' W 005°16'1 1.0
2018-Apr-12 10:00N 36°08' W 005°16'0 1.0
2018-Apr-12 09:30N 36°08' W 005°17'0 0.8
2018-Apr-12 09:00N 36°08' W 005°17'2 3.9
2018-Apr-12 08:30N 36°09' W 005°15'78917.1
2018-Apr-10 10:15N 37°32' E 011°05'618.0
2018-Apr-10 09:55N 37°29' E 011°12'2820.7
2018-Apr-10 08:33N 37°14' E 011°42'115.2
2018-Apr-10 08:30N 37°13' E 011°42'816.3
2018-Apr-10 08:00N 37°07' E 011°49'1517.8
2018-Apr-10 07:08N 36°59' E 012°06'1122.7
2018-Apr-10 06:38N 36°55' E 012°19'1 7.9
2018-Apr-10 06:28N 36°54' E 012°20'715.5
2018-Apr-10 06:00N 36°51' E 012°29'1020.8
2018-Apr-10 05:30N 36°48' E 012°41'1622.6
2018-Apr-10 04:48N 36°42' E 012°59'2 8.5
2018-Apr-10 04:30N 36°42' E 013°02'1019.3
2018-Apr-10 04:00N 36°38' E 013°14'1120.4
2018-Apr-10 03:28N 36°34' E 013°26'1323.1
2018-Apr-10 02:56N 36°30' E 013°41'612.7
2018-Apr-10 02:29N 36°28' E 013°47'919.3
2018-Apr-10 02:00N 36°24' E 013°58'919.2
2018-Apr-10 01:31N 36°21' E 014°09'917.5
2018-Apr-10 01:00N 36°18' E 014°19'1019.4
2018-Apr-10 00:29N 36°15' E 014°31'1020.2
2018-Apr-10 00:00N 36°12' E 014°43'  
2018-Apr-07 19:21N 31°26' E 032°24'25 9.2
2018-Apr-07 16:38N 31°02' E 032°19'2 9.5
2018-Apr-07 16:29N 31°00' E 032°19'66 7.5
2018-Apr-07 07:39N 29°55' E 032°33'1 8.5
2018-Apr-07 07:30N 29°54' E 032°33'5 6.1
2018-Apr-07 06:43N 29°49' E 032°33'1 4.1
2018-Apr-07 06:30N 29°48' E 032°33'3 5.0
2018-Apr-07 05:48N 29°45' E 032°36'0 0.0
2018-Apr-07 05:22N 29°45' E 032°36'0 0.0
2018-Apr-07 05:00N 29°45' E 032°36'0 0.1
2018-Apr-07 04:30N 29°45' E 032°36'0 0.2
2018-Apr-07 04:00N 29°45' E 032°36'0 0.1
2018-Apr-07 03:30N 29°45' E 032°36'0 0.0
2018-Apr-07 03:00N 29°45' E 032°36'0 0.0
2018-Apr-07 01:48N 29°45' E 032°36'0 0.0
2018-Apr-07 00:12N 29°45' E 032°36'0 0.0
2018-Apr-06 23:45N 29°45' E 032°36'0 0.1
2018-Apr-06 23:30N 29°45' E 032°36'61 3.8
2018-Apr-06 07:24N 28°47' E 032°58'716.9
2018-Apr-06 07:00N 28°41' E 033°01'  
Track history (hours):
 
Tides and Currents Weather Stations Pressure Air Temp Water Temp Dewpoint Dewpoint Depression Visibility Wind Speed Wind Dir Waves Ship Positions

Meridian Spirit

Last reported at 2018-Apr-12 13:58 UTC. Time now 2018-Apr-19 19:00 UTC.
Position N 35°58' W 005°37'.

Length 285 m; draft 9.5 m.

Type: Tanker. MMSI: 219061000.

Date/timePositionNaut miles runAvg speedWind from/ knotsBaromVisibWave heightAir tempDewpointWater temp
2018-Apr-12 13:58N 35°58' W 005°37'613.9
2018-Apr-12 13:30N 35°60' W 005°29'714.0
2018-Apr-12 13:00N 36°02' W 005°21'612.9
2018-Apr-12 12:30N 36°04' W 005°14'5 4.3
2018-Apr-12 11:24N 36°09' W 005°14'1 1.9
2018-Apr-12 11:00N 36°09' W 005°15'1 1.5
2018-Apr-12 10:30N 36°08' W 005°16'1 1.0
2018-Apr-12 10:00N 36°08' W 005°16'0 1.0
2018-Apr-12 09:30N 36°08' W 005°17'0 0.8
2018-Apr-12 09:00N 36°08' W 005°17'2 3.9
2018-Apr-12 08:30N 36°09' W 005°15'78917.1
2018-Apr-10 10:15N 37°32' E 011°05'618.0
2018-Apr-10 09:55N 37°29' E 011°12'2820.7
2018-Apr-10 08:33N 37°14' E 011°42'115.2
2018-Apr-10 08:30N 37°13' E 011°42'816.3
2018-Apr-10 08:00N 37°07' E 011°49'1517.8
2018-Apr-10 07:08N 36°59' E 012°06'1122.7
2018-Apr-10 06:38N 36°55' E 012°19'1 7.9
2018-Apr-10 06:28N 36°54' E 012°20'715.5
2018-Apr-10 06:00N 36°51' E 012°29'1020.8
2018-Apr-10 05:30N 36°48' E 012°41'1622.6
2018-Apr-10 04:48N 36°42' E 012°59'2 8.5
2018-Apr-10 04:30N 36°42' E 013°02'1019.3
2018-Apr-10 04:00N 36°38' E 013°14'1120.4
2018-Apr-10 03:28N 36°34' E 013°26'1323.1
2018-Apr-10 02:56N 36°30' E 013°41'612.7
2018-Apr-10 02:29N 36°28' E 013°47'919.3
2018-Apr-10 02:00N 36°24' E 013°58'919.2
2018-Apr-10 01:31N 36°21' E 014°09'917.5
2018-Apr-10 01:00N 36°18' E 014°19'1019.4
2018-Apr-10 00:29N 36°15' E 014°31'1020.2
2018-Apr-10 00:00N 36°12' E 014°43'  
2018-Apr-07 19:21N 31°26' E 032°24'25 9.2
2018-Apr-07 16:38N 31°02' E 032°19'2 9.5
2018-Apr-07 16:29N 31°00' E 032°19'66 7.5
2018-Apr-07 07:39N 29°55' E 032°33'1 8.5
2018-Apr-07 07:30N 29°54' E 032°33'5 6.1
2018-Apr-07 06:43N 29°49' E 032°33'1 4.1
2018-Apr-07 06:30N 29°48' E 032°33'3 5.0
2018-Apr-07 05:48N 29°45' E 032°36'0 0.0
2018-Apr-07 05:22N 29°45' E 032°36'0 0.0
2018-Apr-07 05:00N 29°45' E 032°36'0 0.1
2018-Apr-07 04:30N 29°45' E 032°36'0 0.2
2018-Apr-07 04:00N 29°45' E 032°36'0 0.1
2018-Apr-07 03:30N 29°45' E 032°36'0 0.0
2018-Apr-07 03:00N 29°45' E 032°36'0 0.0
2018-Apr-07 01:48N 29°45' E 032°36'0 0.0
2018-Apr-07 00:12N 29°45' E 032°36'0 0.0
2018-Apr-06 23:45N 29°45' E 032°36'0 0.1
2018-Apr-06 23:30N 29°45' E 032°36'61 3.8
2018-Apr-06 07:24N 28°47' E 032°58'716.9
2018-Apr-06 07:00N 28°41' E 033°01'  

Dump ship's entire track history